createdAt,value
2019-03-31T00:01:07.534Z,4.43
2019-03-31T00:03:31.857Z,4.13
2019-03-31T00:06:05.506Z,1.20
2019-03-31T00:08:38.696Z,1.23
2019-03-31T00:11:12.121Z,0.80
2019-03-31T00:13:45.176Z,7.13
2019-03-31T00:16:18.453Z,1.27
2019-03-31T00:18:51.458Z,2.43
2019-03-31T00:21:24.495Z,2.70
2019-03-31T00:23:57.332Z,3.90
2019-03-31T00:26:30.631Z,0.77
2019-03-31T00:29:04.031Z,1.80
2019-03-31T00:31:37.389Z,0.70
2019-03-31T00:34:10.590Z,3.57
2019-03-31T00:36:43.838Z,2.30
2019-03-31T00:39:16.840Z,1.10
2019-03-31T00:41:50.027Z,0.83
2019-03-31T00:44:23.115Z,1.10
2019-03-31T00:46:56.655Z,0.80
2019-03-31T00:49:29.796Z,1.37
2019-03-31T00:52:03.123Z,3.53
2019-03-31T00:54:36.557Z,2.07
2019-03-31T00:57:10.458Z,3.13
2019-03-31T00:59:43.875Z,1.43
2019-03-31T01:02:18.808Z,1.40
2019-03-31T01:04:52.052Z,2.63
2019-03-31T01:07:25.618Z,1.30
2019-03-31T01:09:58.900Z,1.63
2019-03-31T01:12:32.051Z,4.57
2019-03-31T01:15:06.708Z,15.27
2019-03-31T01:17:40.010Z,10.77
2019-03-31T01:20:13.491Z,5.13
2019-03-31T01:22:46.903Z,2.70
2019-03-31T01:25:20.799Z,2.37
2019-03-31T01:27:54.588Z,4.03
2019-03-31T01:30:27.727Z,1.20
2019-03-31T01:33:01.145Z,3.37
2019-03-31T01:35:34.227Z,4.30
2019-03-31T01:38:07.360Z,1.43
2019-03-31T01:40:40.420Z,0.87
2019-03-31T01:43:13.554Z,0.93
2019-03-31T01:45:46.632Z,1.90
2019-03-31T01:48:20.048Z,9.20
2019-03-31T01:50:53.062Z,10.20
2019-03-31T01:53:26.463Z,6.10
2019-03-31T01:55:59.545Z,9.83
2019-03-31T01:58:33.657Z,1.60
2019-03-31T02:01:08.380Z,2.23
2019-03-31T02:03:41.760Z,2.43
2019-03-31T02:06:14.623Z,0.80
2019-03-31T02:08:47.961Z,1.80
2019-03-31T02:11:20.961Z,1.27
2019-03-31T02:13:54.359Z,0.90
2019-03-31T02:16:27.504Z,0.40
2019-03-31T02:19:00.605Z,1.70
2019-03-31T02:21:33.723Z,0.93
2019-03-31T02:24:06.916Z,1.00
2019-03-31T02:26:39.975Z,1.30
2019-03-31T02:29:13.094Z,1.27
2019-03-31T02:31:45.984Z,1.00
2019-03-31T02:34:19.126Z,8.30
2019-03-31T02:36:52.448Z,9.30
2019-03-31T02:39:25.892Z,11.53
2019-03-31T02:41:58.863Z,4.60
2019-03-31T02:44:32.719Z,2.53
2019-03-31T02:47:07.112Z,1.10
2019-03-31T02:49:40.430Z,6.73
2019-03-31T02:52:13.364Z,1.67
2019-03-31T02:54:46.660Z,2.00
2019-03-31T02:57:19.641Z,1.23
2019-03-31T02:59:53.930Z,2.83
2019-03-31T03:02:40.637Z,0.63
2019-03-31T03:05:17.516Z,2.17
2019-03-31T03:07:35.703Z,0.40
2019-03-31T03:10:09.218Z,0.60
2019-03-31T03:12:43.221Z,3.23
2019-03-31T03:15:18.088Z,0.83
2019-03-31T03:17:51.128Z,1.70
2019-03-31T03:20:24.526Z,0.87
2019-03-31T03:22:57.235Z,9.07
2019-03-31T03:25:31.376Z,18.50
2019-03-31T03:28:04.400Z,12.87
2019-03-31T03:30:38.543Z,14.87
2019-03-31T03:33:15.927Z,2.77
2019-03-31T03:35:46.060Z,7.40
2019-03-31T03:38:19.717Z,6.40
2019-03-31T03:40:52.866Z,8.87
2019-03-31T03:43:25.888Z,2.63
2019-03-31T03:45:59.068Z,6.70
2019-03-31T03:48:32.109Z,3.10
2019-03-31T03:51:06.760Z,2.93
2019-03-31T03:53:40.314Z,2.87
2019-03-31T03:56:13.656Z,3.10
2019-03-31T03:58:46.588Z,8.07
2019-03-31T04:01:21.145Z,8.70
2019-03-31T04:03:54.681Z,4.37
2019-03-31T04:06:28.268Z,4.30
2019-03-31T04:09:01.526Z,7.13
2019-03-31T04:11:34.829Z,1.23
2019-03-31T04:14:09.226Z,7.00
2019-03-31T04:16:43.083Z,1.97
2019-03-31T04:19:16.075Z,6.00
2019-03-31T04:21:50.036Z,4.13
2019-03-31T04:24:23.143Z,3.37
2019-03-31T04:26:56.517Z,0.93
2019-03-31T04:29:29.563Z,4.00
2019-03-31T04:32:02.924Z,7.40
2019-03-31T04:34:36.045Z,4.97
2019-03-31T04:37:09.591Z,6.50
2019-03-31T04:39:46.381Z,3.70
2019-03-31T04:42:19.989Z,1.83
2019-03-31T04:44:53.058Z,4.43
2019-03-31T04:47:26.115Z,3.80
2019-03-31T04:49:59.296Z,0.67
2019-03-31T04:52:32.574Z,3.33
2019-03-31T04:55:06.952Z,0.90
2019-03-31T04:57:40.560Z,2.23
2019-03-31T05:00:13.439Z,2.27
2019-03-31T05:02:46.651Z,1.40
2019-03-31T05:05:20.247Z,1.33
2019-03-31T05:07:53.714Z,1.87
2019-03-31T05:10:26.870Z,1.67
2019-03-31T05:13:00.177Z,0.70
2019-03-31T05:15:33.310Z,1.13
2019-03-31T05:18:11.343Z,1.90
2019-03-31T05:20:44.470Z,3.13
2019-03-31T05:23:18.461Z,1.43
2019-03-31T05:25:51.710Z,12.93
2019-03-31T05:28:25.568Z,5.23
2019-03-31T05:30:59.041Z,8.10
2019-03-31T05:33:32.753Z,7.30
2019-03-31T05:36:05.808Z,4.20
2019-03-31T05:38:39.447Z,4.57
2019-03-31T05:41:12.467Z,1.83
2019-03-31T05:43:45.909Z,2.43
2019-03-31T05:46:19.016Z,1.30
2019-03-31T05:48:52.361Z,3.63
2019-03-31T05:51:25.908Z,1.10
2019-03-31T05:53:59.487Z,0.83
2019-03-31T05:56:32.577Z,3.13
2019-03-31T05:59:06.493Z,1.97
2019-03-31T06:01:40.012Z,1.13
2019-03-31T06:04:13.326Z,1.00
2019-03-31T06:06:46.850Z,2.83
2019-03-31T06:09:20.614Z,1.27
2019-03-31T06:11:54.919Z,2.07
2019-03-31T06:14:27.907Z,1.33
2019-03-31T06:17:00.963Z,2.33
2019-03-31T06:19:34.458Z,4.10
2019-03-31T06:22:07.430Z,2.97
2019-03-31T06:24:40.912Z,1.93
2019-03-31T06:27:15.817Z,0.87
2019-03-31T06:29:48.254Z,3.00
2019-03-31T06:32:21.404Z,1.53
2019-03-31T06:34:55.686Z,8.83
2019-03-31T06:37:28.984Z,1.90
2019-03-31T06:40:02.513Z,2.47
2019-03-31T06:42:36.029Z,1.57
2019-03-31T06:45:10.121Z,0.90
2019-03-31T06:47:43.305Z,4.73
2019-03-31T06:50:17.629Z,3.83
2019-03-31T06:52:50.823Z,1.93
2019-03-31T06:55:24.108Z,2.13
2019-03-31T06:57:57.113Z,6.90
2019-03-31T07:00:30.439Z,7.30
2019-03-31T07:03:03.583Z,1.33
2019-03-31T07:05:36.666Z,10.80
2019-03-31T07:08:09.733Z,22.63
2019-03-31T07:10:43.074Z,28.57
2019-03-31T07:13:16.239Z,12.67
2019-03-31T07:15:49.432Z,14.70
2019-03-31T07:18:22.556Z,1.77
2019-03-31T07:20:56.858Z,17.80
2019-03-31T07:23:31.399Z,19.87
2019-03-31T07:26:04.981Z,6.67
2019-03-31T07:28:44.836Z,2.17
2019-03-31T07:31:18.457Z,2.93
2019-03-31T07:33:51.481Z,2.57
2019-03-31T07:36:25.141Z,3.80
2019-03-31T07:38:58.116Z,2.43
2019-03-31T07:41:31.915Z,0.67
2019-03-31T07:44:05.116Z,3.40
2019-03-31T07:46:38.997Z,1.70
2019-03-31T07:49:12.038Z,0.80
2019-03-31T07:51:45.520Z,1.00
2019-03-31T07:54:18.481Z,2.87
2019-03-31T07:56:53.145Z,2.20
2019-03-31T07:59:26.310Z,0.60
2019-03-31T08:02:03.312Z,1.47
2019-03-31T08:04:36.340Z,2.40
2019-03-31T08:07:09.728Z,1.30
2019-03-31T08:09:43.091Z,1.50
2019-03-31T08:12:16.565Z,1.33
2019-03-31T08:14:49.543Z,3.47
2019-03-31T08:17:22.899Z,2.03
2019-03-31T08:19:56.677Z,3.03
2019-03-31T08:22:30.342Z,5.90
2019-03-31T08:25:03.784Z,4.73
2019-03-31T08:27:37.205Z,3.50
2019-03-31T08:30:15.108Z,6.07
2019-03-31T08:32:48.549Z,6.33
2019-03-31T08:35:21.662Z,3.67
2019-03-31T08:37:55.089Z,1.83
2019-03-31T08:40:27.990Z,3.80
2019-03-31T08:43:01.732Z,2.40
2019-03-31T08:45:35.371Z,2.30
2019-03-31T08:48:09.615Z,3.90
2019-03-31T08:50:43.070Z,3.07
2019-03-31T08:53:17.204Z,3.13
2019-03-31T08:55:51.534Z,4.00
2019-03-31T08:58:24.734Z,4.13
2019-03-31T09:00:59.032Z,4.17
2019-03-31T09:03:33.450Z,1.97
2019-03-31T09:06:26.107Z,2.07
2019-03-31T09:08:59.737Z,0.80
2019-03-31T09:11:32.871Z,2.33
2019-03-31T09:14:06.423Z,4.43
2019-03-31T09:16:40.026Z,4.40
2019-03-31T09:19:13.510Z,3.17
2019-03-31T09:21:49.719Z,1.63
2019-03-31T09:24:24.086Z,2.00
2019-03-31T09:26:57.887Z,3.53
2019-03-31T09:29:31.670Z,1.83
2019-03-31T09:32:05.082Z,3.83
2019-03-31T09:34:38.580Z,15.77
2019-03-31T09:37:12.610Z,2.33
2019-03-31T09:39:47.611Z,10.13
2019-03-31T09:42:21.754Z,4.07
2019-03-31T09:44:55.963Z,2.70
2019-03-31T09:47:29.600Z,2.03
2019-03-31T09:50:04.104Z,1.20
2019-03-31T09:52:38.647Z,2.50
2019-03-31T09:55:13.832Z,2.70
2019-03-31T09:57:48.376Z,8.07
2019-03-31T10:00:36.657Z,4.00
2019-03-31T10:03:11.661Z,2.77
2019-03-31T10:05:48.014Z,3.47
2019-03-31T10:08:22.501Z,2.20
2019-03-31T10:11:08.221Z,3.93
2019-03-31T10:13:32.360Z,2.90
2019-03-31T10:16:05.783Z,5.77
2019-03-31T10:18:39.099Z,3.10
2019-03-31T10:21:12.442Z,2.93
2019-03-31T10:23:46.988Z,2.27
2019-03-31T10:26:31.837Z,4.80
2019-03-31T10:28:56.338Z,4.07
2019-03-31T10:31:30.792Z,2.03
2019-03-31T10:34:04.569Z,2.83
2019-03-31T10:36:44.630Z,3.17
2019-03-31T10:39:15.538Z,1.43
2019-03-31T10:41:58.955Z,3.17
2019-03-31T10:44:32.459Z,1.93
2019-03-31T10:47:07.170Z,7.23
2019-03-31T10:49:40.948Z,3.10
2019-03-31T10:52:14.775Z,2.63
2019-03-31T10:54:49.139Z,1.90
2019-03-31T10:57:24.075Z,4.47
2019-03-31T10:59:57.184Z,5.53
2019-03-31T11:02:31.567Z,2.20
2019-03-31T11:05:04.676Z,2.47
2019-03-31T11:07:38.124Z,2.50
2019-03-31T11:10:12.281Z,4.40
2019-03-31T11:12:45.823Z,1.00
2019-03-31T11:15:18.943Z,1.40
2019-03-31T11:17:53.563Z,1.47
2019-03-31T11:20:26.703Z,2.27
2019-03-31T11:23:20.820Z,2.47
2019-03-31T11:25:53.858Z,2.30
2019-03-31T11:28:27.394Z,1.93
2019-03-31T11:31:00.669Z,1.37
2019-03-31T11:33:35.750Z,1.87
2019-03-31T11:36:29.153Z,2.47
2019-03-31T11:39:04.109Z,3.17
2019-03-31T11:41:37.575Z,1.73
2019-03-31T11:44:11.150Z,1.30
2019-03-31T11:46:44.041Z,2.07
2019-03-31T11:49:17.246Z,1.40
2019-03-31T11:51:50.324Z,1.80
2019-03-31T11:54:24.631Z,2.00
2019-03-31T11:57:02.806Z,2.27
2019-03-31T11:59:36.215Z,1.40
2019-03-31T12:02:09.364Z,3.63
2019-03-31T12:04:43.166Z,3.37
2019-03-31T12:07:27.168Z,2.80
2019-03-31T12:09:51.604Z,3.53
2019-03-31T12:12:24.648Z,3.70
2019-03-31T12:15:00.731Z,4.00
2019-03-31T12:17:32.190Z,3.20
2019-03-31T12:20:05.441Z,2.00
2019-03-31T12:22:39.210Z,4.13
2019-03-31T12:25:12.955Z,2.73
2019-03-31T12:27:46.866Z,3.53
2019-03-31T12:30:21.963Z,3.57
2019-03-31T12:32:54.922Z,5.07
2019-03-31T12:35:28.504Z,4.67
2019-03-31T12:38:01.688Z,0.80
2019-03-31T12:40:36.776Z,2.03
2019-03-31T12:43:09.691Z,4.13
2019-03-31T12:45:43.559Z,1.97
2019-03-31T12:48:17.170Z,2.73
2019-03-31T12:50:50.478Z,1.80
2019-03-31T12:53:23.584Z,3.20
2019-03-31T12:56:00.460Z,2.00
2019-03-31T12:58:31.193Z,3.33
2019-03-31T13:01:04.661Z,2.93
2019-03-31T13:03:37.448Z,4.53
2019-03-31T13:06:11.099Z,3.67
2019-03-31T13:08:44.236Z,3.17
2019-03-31T13:11:17.420Z,1.43
2019-03-31T13:13:50.270Z,2.00
2019-03-31T13:16:23.531Z,3.10
2019-03-31T13:18:57.016Z,3.20
2019-03-31T13:21:30.338Z,4.97
2019-03-31T13:24:03.532Z,3.73
2019-03-31T13:26:37.613Z,3.07
2019-03-31T13:29:10.540Z,1.40
2019-03-31T13:31:43.699Z,6.37
2019-03-31T13:34:16.642Z,3.20
2019-03-31T13:36:49.955Z,1.90
2019-03-31T13:39:23.085Z,1.90
2019-03-31T13:41:56.377Z,4.47
2019-03-31T13:44:50.013Z,2.47
2019-03-31T13:47:23.503Z,2.43
2019-03-31T13:49:56.736Z,2.10
2019-03-31T13:52:30.359Z,2.53
2019-03-31T13:55:03.372Z,2.10
2019-03-31T13:57:37.262Z,1.37
2019-03-31T14:00:11.246Z,3.93
2019-03-31T14:02:44.391Z,2.73
2019-03-31T14:05:17.353Z,2.47
2019-03-31T14:07:51.087Z,1.87
2019-03-31T14:10:24.053Z,1.43
2019-03-31T14:12:57.487Z,2.53
2019-03-31T14:15:30.410Z,1.83
2019-03-31T14:18:03.822Z,2.13
2019-03-31T14:20:36.996Z,1.10
2019-03-31T14:23:10.330Z,1.87
2019-03-31T14:25:43.482Z,1.53
2019-03-31T14:28:16.802Z,3.90
2019-03-31T14:30:49.784Z,1.07
2019-03-31T14:33:23.416Z,3.07
2019-03-31T14:35:57.800Z,3.37
2019-03-31T14:38:39.880Z,3.27
2019-03-31T14:41:05.227Z,1.20
2019-03-31T14:43:39.306Z,2.37
2019-03-31T14:46:12.431Z,1.77
2019-03-31T14:48:45.838Z,2.33
2019-03-31T14:51:19.299Z,3.13
2019-03-31T14:53:52.553Z,1.77
2019-03-31T14:56:25.365Z,0.90
2019-03-31T14:58:58.418Z,1.73
2019-03-31T15:01:31.476Z,2.17
2019-03-31T15:04:06.017Z,0.70
2019-03-31T15:06:39.005Z,0.60
2019-03-31T15:09:12.439Z,2.27
2019-03-31T15:11:45.668Z,4.73
2019-03-31T15:14:20.033Z,1.60
2019-03-31T15:16:53.027Z,1.83
2019-03-31T15:19:27.591Z,1.30
2019-03-31T15:22:00.587Z,2.47
2019-03-31T15:24:34.136Z,1.27
2019-03-31T15:27:07.097Z,1.60
2019-03-31T15:29:40.341Z,0.87
2019-03-31T15:32:13.108Z,1.70
2019-03-31T15:34:46.625Z,1.13
2019-03-31T15:37:19.728Z,1.87
2019-03-31T15:39:52.630Z,1.40
2019-03-31T15:42:25.665Z,1.77
2019-03-31T15:44:58.695Z,0.73
2019-03-31T15:47:31.300Z,2.40
2019-03-31T15:50:04.684Z,1.33
2019-03-31T15:52:37.662Z,0.80
2019-03-31T15:55:11.162Z,2.90
2019-03-31T15:57:44.776Z,2.73
2019-03-31T16:00:17.857Z,3.77
2019-03-31T16:02:51.183Z,4.47
2019-03-31T16:05:25.360Z,2.40
2019-03-31T16:07:58.266Z,1.73
2019-03-31T16:10:32.158Z,0.87
2019-03-31T16:13:05.076Z,1.13
2019-03-31T16:15:41.608Z,1.83
2019-03-31T16:18:14.695Z,1.50
2019-03-31T16:20:48.302Z,0.90
2019-03-31T16:23:21.308Z,2.00
2019-03-31T16:25:56.124Z,1.33
2019-03-31T16:28:29.140Z,1.43
2019-03-31T16:31:02.497Z,1.23
2019-03-31T16:33:35.666Z,2.50
2019-03-31T16:36:09.187Z,1.77
2019-03-31T16:38:42.218Z,0.50
2019-03-31T16:41:15.620Z,1.03
2019-03-31T16:43:49.094Z,1.70
2019-03-31T16:46:22.998Z,1.00
2019-03-31T16:48:56.183Z,1.70
2019-03-31T16:51:29.442Z,3.27
2019-03-31T16:54:02.391Z,1.00
2019-03-31T16:56:35.629Z,1.17
2019-03-31T16:59:08.757Z,2.90
2019-03-31T17:01:41.598Z,1.23
2019-03-31T17:04:15.144Z,1.23
2019-03-31T17:06:48.382Z,1.90
2019-03-31T17:09:21.524Z,2.10
2019-03-31T17:11:55.140Z,1.40
2019-03-31T17:14:28.147Z,3.57
2019-03-31T17:17:01.613Z,0.63
2019-03-31T17:19:34.751Z,3.17
2019-03-31T17:22:08.069Z,1.27
2019-03-31T17:24:40.985Z,3.40
2019-03-31T17:27:14.778Z,2.37
2019-03-31T17:29:47.804Z,1.93
2019-03-31T17:32:20.986Z,0.93
2019-03-31T17:34:53.797Z,1.90
2019-03-31T17:37:27.065Z,0.77
2019-03-31T17:40:05.881Z,2.70
2019-03-31T17:42:34.357Z,1.20
2019-03-31T17:45:08.391Z,4.17
2019-03-31T17:47:41.867Z,1.03
2019-03-31T17:50:14.751Z,0.50
2019-03-31T17:52:47.931Z,0.80
2019-03-31T17:55:20.964Z,1.03
2019-03-31T17:57:54.440Z,3.43
2019-03-31T18:00:27.676Z,1.23
2019-03-31T18:03:01.196Z,1.30
2019-03-31T18:05:34.111Z,1.33
2019-03-31T18:08:07.351Z,2.00
2019-03-31T18:10:40.439Z,1.70
2019-03-31T18:13:13.810Z,1.57
2019-03-31T18:15:48.742Z,0.67
2019-03-31T18:18:21.886Z,1.93
2019-03-31T18:20:54.757Z,0.90
2019-03-31T18:23:28.413Z,1.37
2019-03-31T18:26:01.318Z,1.63
2019-03-31T18:28:34.618Z,1.50
2019-03-31T18:31:07.739Z,5.53
2019-03-31T18:33:41.044Z,1.67
2019-03-31T18:36:13.864Z,4.50
2019-03-31T18:38:47.571Z,3.77
2019-03-31T18:41:20.818Z,5.43
2019-03-31T18:43:54.162Z,1.23
2019-03-31T18:46:27.155Z,1.47
2019-03-31T18:49:01.355Z,6.97
2019-03-31T18:51:34.288Z,2.70
2019-03-31T18:54:23.855Z,4.10
2019-03-31T18:56:58.354Z,6.63
2019-03-31T18:59:36.239Z,7.10
2019-03-31T19:02:25.475Z,2.83
2019-03-31T19:05:09.146Z,3.60
2019-03-31T19:07:43.483Z,1.27
2019-03-31T19:10:26.908Z,2.67
2019-03-31T19:13:18.093Z,3.30
2019-03-31T19:16:08.626Z,2.43
2019-03-31T19:18:43.152Z,4.80
2019-03-31T19:21:33.040Z,3.00
2019-03-31T19:24:07.671Z,4.53
2019-03-31T19:26:58.258Z,2.93
2019-03-31T19:29:38.478Z,6.73
2019-03-31T19:32:12.550Z,1.83
2019-03-31T19:34:46.739Z,4.97
2019-03-31T19:37:27.583Z,8.63
2019-03-31T19:40:19.767Z,3.07
2019-03-31T19:42:54.700Z,2.97
2019-03-31T19:45:41.184Z,7.33
2019-03-31T19:48:31.590Z,3.40
2019-03-31T19:51:23.629Z,4.57
2019-03-31T19:53:58.465Z,2.73
2019-03-31T19:56:35.781Z,4.03
2019-03-31T19:59:25.730Z,5.00
2019-03-31T20:02:16.643Z,15.63
2019-03-31T20:04:57.823Z,14.67
2019-03-31T20:07:31.987Z,22.23
2019-03-31T20:10:15.505Z,9.17
2019-03-31T20:12:55.677Z,9.80
2019-03-31T20:15:46.592Z,20.47
2019-03-31T20:18:36.063Z,17.90
2019-03-31T20:21:30.997Z,14.23
2019-03-31T20:23:56.330Z,13.60
2019-03-31T20:29:46.839Z,5.40
2019-03-31T20:32:37.757Z,8.03
2019-03-31T20:35:12.071Z,5.87
2019-03-31T20:37:55.190Z,10.77
2019-03-31T20:40:30.321Z,8.20
2019-03-31T20:43:16.774Z,8.93
2019-03-31T20:45:50.677Z,8.50
2019-03-31T20:48:23.743Z,7.20
2019-03-31T20:50:56.746Z,8.40
2019-03-31T20:53:29.830Z,9.00
2019-03-31T20:56:03.121Z,10.93
2019-03-31T20:58:36.211Z,12.63
2019-03-31T21:01:10.263Z,10.27
2019-03-31T21:03:44.480Z,7.40
2019-03-31T21:06:17.693Z,6.63
2019-03-31T21:08:50.640Z,10.77
2019-03-31T21:11:23.854Z,16.13
2019-03-31T21:13:57.347Z,10.13
2019-03-31T21:16:30.802Z,21.60
2019-03-31T21:19:03.988Z,18.27
2019-03-31T21:21:37.577Z,7.80
2019-03-31T21:24:10.599Z,11.17
2019-03-31T21:26:44.700Z,22.90
2019-03-31T21:29:17.663Z,10.93
2019-03-31T21:31:51.033Z,15.57
2019-03-31T21:34:23.986Z,14.60
2019-03-31T21:36:57.334Z,11.13
2019-03-31T21:39:31.368Z,8.20
2019-03-31T21:42:23.314Z,6.33
2019-03-31T21:44:56.978Z,16.90
2019-03-31T21:47:30.372Z,7.20
2019-03-31T21:50:03.446Z,12.07
2019-03-31T21:52:37.297Z,9.63
2019-03-31T21:55:10.649Z,20.47
2019-03-31T21:57:43.753Z,8.70
2019-03-31T22:00:16.818Z,13.23
2019-03-31T22:02:50.628Z,16.50
2019-03-31T22:05:23.729Z,19.57
2019-03-31T22:07:58.823Z,12.13
2019-03-31T22:10:31.657Z,24.67
2019-03-31T22:13:04.979Z,11.17
2019-03-31T22:15:37.953Z,11.83
2019-03-31T22:18:14.374Z,10.67
2019-03-31T22:20:47.641Z,19.17
2019-03-31T22:23:21.327Z,10.57
2019-03-31T22:25:54.344Z,8.17
2019-03-31T22:28:27.615Z,5.87
2019-03-31T22:31:00.973Z,8.30
2019-03-31T22:33:34.224Z,13.53
2019-03-31T22:36:26.264Z,8.80
2019-03-31T22:39:21.874Z,10.70
2019-03-31T22:41:55.002Z,19.27
2019-03-31T22:44:28.330Z,9.87
2019-03-31T22:47:01.265Z,18.97
2019-03-31T22:49:34.626Z,12.00
2019-03-31T22:52:07.652Z,9.90
2019-03-31T22:54:41.543Z,8.17
2019-03-31T22:57:14.454Z,9.03
2019-03-31T22:59:48.178Z,7.13
2019-03-31T23:02:21.172Z,15.47
2019-03-31T23:04:54.623Z,9.63
2019-03-31T23:07:28.172Z,8.60
2019-03-31T23:10:01.731Z,5.40
2019-03-31T23:12:34.924Z,14.00
2019-03-31T23:15:09.401Z,9.40
2019-03-31T23:17:42.842Z,8.07
2019-03-31T23:20:16.587Z,17.63
2019-03-31T23:22:50.046Z,9.90
2019-03-31T23:25:23.503Z,12.23
2019-03-31T23:27:56.943Z,11.00
2019-03-31T23:30:30.680Z,11.10
2019-03-31T23:33:03.687Z,12.27
2019-03-31T23:35:37.830Z,6.83
2019-03-31T23:38:11.356Z,5.37
2019-03-31T23:40:44.991Z,3.70
2019-03-31T23:43:18.471Z,3.53
2019-03-31T23:45:52.152Z,3.37
2019-03-31T23:48:25.131Z,6.93
2019-03-31T23:50:58.859Z,5.67
2019-03-31T23:53:31.677Z,4.27
2019-03-31T23:56:05.129Z,3.83
2019-03-31T23:58:37.972Z,5.63
